Time,TemperatureF,DewpointF,PressureIn,WindDirection,WindDirectionDegrees,WindSpeedMPH,WindSpeedGustMPH,Humidity,HourlyPrecipIn,Conditions,Clouds,dailyrainin,SolarRadiationWatts/m^2,SoftwareType,DateUTC
2014-01-28 00:14:00,4.2,-2.0,30.26,WSW,257,14.0,-999.0,75,-99.99,,,0.00,0,weatherlink.com 1.10,2014-01-28 05:14:00,
2014-01-28 00:29:00,4.1,-2.0,30.27,West,263,11.0,-999.0,75,-99.99,,,0.00,0,weatherlink.com 1.10,2014-01-28 05:29:00,
2014-01-28 00:44:00,3.8,-4.0,30.27,West,273,13.0,-999.0,71,-99.99,,,0.00,0,weatherlink.com 1.10,2014-01-28 05:44:00,
2014-01-28 00:59:00,3.6,-4.0,30.28,West,261,12.0,-999.0,71,-99.99,,,0.00,0,weatherlink.com 1.10,2014-01-28 05:59:00,
2014-01-28 01:14:00,3.2,-4.0,30.28,WNW,289,13.0,-999.0,71,-99.99,,,0.00,0,weatherlink.com 1.10,2014-01-28 06:14:00,
2014-01-28 01:29:00,3.0,-4.0,30.29,NW,323,15.0,-999.0,72,-99.99,,,0.00,0,weatherlink.com 1.10,2014-01-28 06:29:00,
2014-01-28 01:44:00,2.9,-5.0,30.29,West,264,16.0,-999.0,71,-99.99,,,0.00,0,weatherlink.com 1.10,2014-01-28 06:44:00,
2014-01-28 01:59:00,2.9,-5.0,30.30,West,263,10.0,-999.0,71,-99.99,,,0.00,0,weatherlink.com 1.10,2014-01-28 06:59:00,
2014-01-28 02:14:00,2.7,-5.0,30.30,West,274,10.0,-999.0,69,-99.99,,,0.00,0,weatherlink.com 1.10,2014-01-28 07:14:00,
2014-01-28 02:29:00,2.5,-6.0,30.31,WSW,244,11.0,-999.0,69,-99.99,,,0.00,0,weatherlink.com 1.10,2014-01-28 07:29:00,
2014-01-28 02:45:00,2.3,-6.0,30.31,SW,223,9.0,-999.0,68,-99.99,,,0.00,0,weatherlink.com 1.10,2014-01-28 07:45:00,
2014-01-28 03:00:00,2.4,-5.0,30.32,West,277,6.0,-999.0,70,-99.99,,,0.00,0,weatherlink.com 1.10,2014-01-28 08:00:00,
2014-01-28 03:15:00,2.3,-6.0,30.32,WSW,252,11.0,-999.0,69,-99.99,,,0.00,0,weatherlink.com 1.10,2014-01-28 08:15:00,
2014-01-28 03:30:00,2.1,-6.0,30.32,West,267,8.0,-999.0,69,-99.99,,,0.00,0,weatherlink.com 1.10,2014-01-28 08:30:00,
2014-01-28 03:45:00,2.1,-6.0,30.32,WSW,251,8.0,-999.0,69,-99.99,,,0.00,0,weatherlink.com 1.10,2014-01-28 08:45:00,
2014-01-28 04:00:00,2.0,-6.0,30.32,WSW,257,5.0,-999.0,69,-99.99,,,0.00,0,weatherlink.com 1.10,2014-01-28 09:00:00,
2014-01-28 04:15:00,2.1,-6.0,30.32,WSW,238,8.0,-999.0,69,-99.99,,,0.00,0,weatherlink.com 1.10,2014-01-28 09:15:00,
2014-01-28 04:30:00,1.8,-6.0,30.33,SW,214,7.0,-999.0,70,-99.99,,,0.00,0,weatherlink.com 1.10,2014-01-28 09:30:00,
2014-01-28 04:45:00,0.9,-6.0,30.33,SW,234,0.0,-999.0,71,-99.99,,,0.00,0,weatherlink.com 1.10,2014-01-28 09:45:00,
2014-01-28 05:00:00,0.5,-7.0,30.33,SSW,213,3.0,-999.0,71,-99.99,,,0.00,0,weatherlink.com 1.10,2014-01-28 10:00:00,
2014-01-28 05:15:00,0.4,-7.0,30.34,SSW,192,7.0,-999.0,71,-99.99,,,0.00,0,weatherlink.com 1.10,2014-01-28 10:15:00,
2014-01-28 05:31:00,0.0,-7.0,30.34,SSW,203,1.0,-999.0,72,-99.99,,,0.00,0,weatherlink.com 1.10,2014-01-28 10:31:00,
2014-01-28 05:46:00,0.1,-7.0,30.34,WSW,237,1.0,-999.0,73,-99.99,,,0.00,0,weatherlink.com 1.10,2014-01-28 10:46:00,
2014-01-28 06:01:00,-0.1,-7.0,30.34,South,180,2.0,-999.0,73,-99.99,,,0.00,0,weatherlink.com 1.10,2014-01-28 11:01:00,
2014-01-28 06:16:00,-0.7,-7.0,30.34,SSW,192,2.0,-999.0,74,-99.99,,,0.00,0,weatherlink.com 1.10,2014-01-28 11:16:00,
2014-01-28 06:31:00,-0.5,-6.0,30.34,SW,223,5.0,-999.0,77,-99.99,,,0.00,0,weatherlink.com 1.10,2014-01-28 11:31:00,
2014-01-28 06:46:00,-0.7,-6.0,30.35,South,187,1.0,-999.0,79,-99.99,,,0.00,0,weatherlink.com 1.10,2014-01-28 11:46:00,
2014-01-28 07:01:00,-0.8,-6.0,30.34,SSW,204,5.0,-999.0,79,-99.99,,,0.00,0,weatherlink.com 1.10,2014-01-28 12:01:00,
2014-01-28 07:16:00,-0.7,-6.0,30.37,WSW,237,12.0,-999.0,79,-99.99,,,0.00,0,weatherlink.com 1.10,2014-01-28 12:16:00,
2014-01-28 07:31:00,-1.3,-6.0,30.38,SW,216,7.0,-999.0,79,-99.99,,,0.00,0,weatherlink.com 1.10,2014-01-28 12:31:00,
2014-01-28 07:46:00,-1.8,-7.0,30.38,SSW,192,6.0,-999.0,79,-99.99,,,0.00,11,weatherlink.com 1.10,2014-01-28 12:46:00,
2014-01-28 08:02:00,-1.9,-7.0,30.40,South,180,10.0,-999.0,79,-99.99,,,0.00,23,weatherlink.com 1.10,2014-01-28 13:02:00,
2014-01-28 08:17:00,-1.2,-6.0,30.38,South,187,4.0,-999.0,79,-99.99,,,0.00,72,weatherlink.com 1.10,2014-01-28 13:17:00,
2014-01-28 08:32:00,-0.3,-5.0,30.38,SSW,200,3.0,-999.0,79,-99.99,,,0.00,114,weatherlink.com 1.10,2014-01-28 13:32:00,
2014-01-28 08:47:00,-0.1,-6.0,30.38,SSW,211,1.0,-999.0,77,-99.99,,,0.00,163,weatherlink.com 1.10,2014-01-28 13:47:00,
2014-01-28 09:02:00,-0.1,-6.0,30.39,SSW,201,10.0,-999.0,76,-99.99,,,0.00,207,weatherlink.com 1.10,2014-01-28 14:02:00,
2014-01-28 09:17:00,0.5,-5.0,30.39,SSW,211,6.0,-999.0,76,-99.99,,,0.00,250,weatherlink.com 1.10,2014-01-28 14:17:00,
2014-01-28 09:32:00,1.0,-5.0,30.39,SSE,165,8.0,-999.0,76,-99.99,,,0.00,350,weatherlink.com 1.10,2014-01-28 14:32:00,
2014-01-28 09:47:00,1.9,-4.0,30.39,SSW,196,5.0,-999.0,76,-99.99,,,0.00,137,weatherlink.com 1.10,2014-01-28 14:47:00,
2014-01-28 10:02:00,2.6,-3.0,30.39,SSW,210,6.0,-999.0,76,-99.99,,,0.00,360,weatherlink.com 1.10,2014-01-28 15:02:00,
2014-01-28 10:17:00,3.7,-3.0,30.39,South,191,9.0,-999.0,75,-99.99,,,0.00,396,weatherlink.com 1.10,2014-01-28 15:17:00,
2014-01-28 10:33:00,4.2,-2.0,30.40,SW,220,4.0,-999.0,74,-99.99,,,0.00,457,weatherlink.com 1.10,2014-01-28 15:33:00,
2014-01-28 10:48:00,4.4,-3.0,30.41,SW,225,9.0,-999.0,72,-99.99,,,0.00,371,weatherlink.com 1.10,2014-01-28 15:48:00,
2014-01-28 11:03:00,5.1,-2.0,30.41,SSW,209,2.0,-999.0,72,-99.99,,,0.00,348,weatherlink.com 1.10,2014-01-28 16:03:00,
2014-01-28 11:18:00,5.1,-2.0,30.41,SW,236,3.0,-999.0,71,-99.99,,,0.00,364,weatherlink.com 1.10,2014-01-28 16:18:00,
2014-01-28 11:33:00,6.1,-2.0,30.40,SSW,198,10.0,-999.0,70,-99.99,,,0.00,399,weatherlink.com 1.10,2014-01-28 16:33:00,
2014-01-28 11:48:00,6.2,-3.0,30.41,WSW,242,2.0,-999.0,67,-99.99,,,0.00,418,weatherlink.com 1.10,2014-01-28 16:48:00,
2014-01-28 12:03:00,6.6,-3.0,30.39,South,188,7.0,-999.0,66,-99.99,,,0.00,378,weatherlink.com 1.10,2014-01-28 17:03:00,
2014-01-28 12:18:00,7.3,-2.0,30.37,WSW,251,6.0,-999.0,65,-99.99,,,0.00,446,weatherlink.com 1.10,2014-01-28 17:18:00,
2014-01-28 12:33:00,7.5,-3.0,30.36,SW,227,7.0,-999.0,63,-99.99,,,0.00,452,weatherlink.com 1.10,2014-01-28 17:33:00,
2014-01-28 12:48:00,8.3,-2.0,30.36,SW,219,2.0,-999.0,64,-99.99,,,0.00,446,weatherlink.com 1.10,2014-01-28 17:48:00,
2014-01-28 13:03:00,8.6,-2.0,30.35,WSW,245,5.0,-999.0,62,-99.99,,,0.00,573,weatherlink.com 1.10,2014-01-28 18:03:00,
2014-01-28 13:19:00,8.4,-3.0,30.34,SW,217,5.0,-999.0,61,-99.99,,,0.00,476,weatherlink.com 1.10,2014-01-28 18:19:00,
2014-01-28 13:34:00,9.1,-2.0,30.34,SW,229,8.0,-999.0,62,-99.99,,,0.00,501,weatherlink.com 1.10,2014-01-28 18:34:00,
2014-01-28 13:49:00,9.0,-2.0,30.34,WSW,257,3.0,-999.0,60,-99.99,,,0.00,218,weatherlink.com 1.10,2014-01-28 18:49:00,
2014-01-28 14:04:00,8.9,-3.0,30.33,West,277,4.0,-999.0,60,-99.99,,,0.00,265,weatherlink.com 1.10,2014-01-28 19:04:00,
2014-01-28 14:19:00,9.8,-2.0,30.32,SSW,209,5.0,-999.0,60,-99.99,,,0.00,434,weatherlink.com 1.10,2014-01-28 19:19:00,
2014-01-28 14:34:00,10.3,-2.0,30.33,WSW,245,6.0,-999.0,59,-99.99,,,0.00,417,weatherlink.com 1.10,2014-01-28 19:34:00,
2014-01-28 14:49:00,10.1,-2.0,30.32,SW,233,6.0,-999.0,59,-99.99,,,0.00,355,weatherlink.com 1.10,2014-01-28 19:49:00,
2014-01-28 15:19:00,10.0,-2.0,30.32,SSW,196,8.0,-999.0,58,-99.99,,,0.00,306,weatherlink.com 1.10,2014-01-28 20:19:00,
2014-01-28 15:34:00,9.7,-2.0,30.31,South,188,6.0,-999.0,59,-99.99,,,0.00,265,weatherlink.com 1.10,2014-01-28 20:34:00,
2014-01-28 15:49:00,9.8,-2.0,30.30,South,178,6.0,-999.0,58,-99.99,,,0.00,220,weatherlink.com 1.10,2014-01-28 20:49:00,
2014-01-28 16:05:00,9.8,-2.0,30.30,South,177,2.0,-999.0,59,-99.99,,,0.00,169,weatherlink.com 1.10,2014-01-28 21:05:00,
2014-01-28 16:20:00,10.0,-2.0,30.31,South,182,4.0,-999.0,59,-99.99,,,0.00,120,weatherlink.com 1.10,2014-01-28 21:20:00,
2014-01-28 16:35:00,9.5,-3.0,30.31,SW,220,6.0,-999.0,57,-99.99,,,0.00,76,weatherlink.com 1.10,2014-01-28 21:35:00,
2014-01-28 16:50:00,9.0,-4.0,30.30,SW,218,6.0,-999.0,57,-99.99,,,0.00,39,weatherlink.com 1.10,2014-01-28 21:50:00,
2014-01-28 17:05:00,8.4,-3.0,30.30,SSW,198,5.0,-999.0,59,-99.99,,,0.00,18,weatherlink.com 1.10,2014-01-28 22:05:00,
2014-01-28 17:20:00,7.7,-4.0,30.29,South,184,7.0,-999.0,59,-99.99,,,0.00,11,weatherlink.com 1.10,2014-01-28 22:20:00,
2014-01-28 17:35:00,7.4,-4.0,30.29,SSW,193,5.0,-999.0,60,-99.99,,,0.00,0,weatherlink.com 1.10,2014-01-28 22:35:00,
2014-01-28 17:50:00,7.0,-4.0,30.28,SW,221,4.0,-999.0,60,-99.99,,,0.00,0,weatherlink.com 1.10,2014-01-28 22:50:00,
2014-01-28 18:05:00,6.7,-5.0,30.29,SSW,205,8.0,-999.0,60,-99.99,,,0.00,0,weatherlink.com 1.10,2014-01-28 23:05:00,
2014-01-28 18:20:00,6.4,-5.0,30.29,South,183,4.0,-999.0,60,-99.99,,,0.00,0,weatherlink.com 1.10,2014-01-28 23:20:00,
2014-01-28 18:35:00,6.3,-5.0,30.29,SSW,195,6.0,-999.0,60,-99.99,,,0.00,0,weatherlink.com 1.10,2014-01-28 23:35:00,
2014-01-28 18:50:00,6.0,-6.0,30.28,South,171,10.0,-999.0,59,-99.99,,,0.00,0,weatherlink.com 1.10,2014-01-28 23:50:00,
2014-01-28 19:06:00,5.9,-6.0,30.27,SSW,209,6.0,-999.0,58,-99.99,,,0.00,0,weatherlink.com 1.10,2014-01-29 00:06:00,
2014-01-28 19:21:00,5.7,-6.0,30.28,South,185,7.0,-999.0,59,-99.99,,,0.00,0,weatherlink.com 1.10,2014-01-29 00:21:00,
2014-01-28 19:36:00,5.6,-6.0,30.28,South,174,7.0,-999.0,59,-99.99,,,0.00,0,weatherlink.com 1.10,2014-01-29 00:36:00,
2014-01-28 19:51:00,5.4,-6.0,30.27,SSE,161,7.0,-999.0,59,-99.99,,,0.00,0,weatherlink.com 1.10,2014-01-29 00:51:00,
2014-01-28 20:06:00,5.2,-6.0,30.27,SSW,207,11.0,-999.0,59,-99.99,,,0.00,0,weatherlink.com 1.10,2014-01-29 01:06:00,
2014-01-28 20:21:00,4.9,-6.0,30.26,South,182,8.0,-999.0,60,-99.99,,,0.00,0,weatherlink.com 1.10,2014-01-29 01:21:00,
2014-01-28 20:36:00,4.7,-7.0,30.25,SSW,194,5.0,-999.0,60,-99.99,,,0.00,0,weatherlink.com 1.10,2014-01-29 01:36:00,
2014-01-28 20:51:00,4.6,-7.0,30.25,South,173,10.0,-999.0,60,-99.99,,,0.00,0,weatherlink.com 1.10,2014-01-29 01:51:00,
2014-01-28 21:06:00,4.6,-7.0,30.25,SSW,200,4.0,-999.0,60,-99.99,,,0.00,0,weatherlink.com 1.10,2014-01-29 02:06:00,
2014-01-28 21:21:00,4.5,-7.0,30.25,South,188,11.0,-999.0,60,-99.99,,,0.00,0,weatherlink.com 1.10,2014-01-29 02:21:00,
2014-01-28 21:36:00,4.4,-7.0,30.25,South,172,7.0,-999.0,60,-99.99,,,0.00,0,weatherlink.com 1.10,2014-01-29 02:36:00,
2014-01-28 21:51:00,4.5,-7.0,30.25,SSE,157,7.0,-999.0,60,-99.99,,,0.00,0,weatherlink.com 1.10,2014-01-29 02:51:00,
2014-01-28 22:07:00,4.3,-7.0,30.25,South,170,9.0,-999.0,60,-99.99,,,0.00,0,weatherlink.com 1.10,2014-01-29 03:07:00,
2014-01-28 22:22:00,4.1,-7.0,30.25,SW,214,5.0,-999.0,59,-99.99,,,0.00,0,weatherlink.com 1.10,2014-01-29 03:22:00,
2014-01-28 22:37:00,4.0,-7.0,30.25,SSW,200,3.0,-999.0,60,-99.99,,,0.00,0,weatherlink.com 1.10,2014-01-29 03:37:00,
2014-01-28 22:52:00,3.8,-8.0,30.25,SSW,209,7.0,-999.0,59,-99.99,,,0.00,0,weatherlink.com 1.10,2014-01-29 03:52:00,
2014-01-28 23:07:00,3.6,-8.0,30.25,South,172,3.0,-999.0,59,-99.99,,,0.00,0,weatherlink.com 1.10,2014-01-29 04:07:00,
2014-01-28 23:22:00,3.6,-8.0,30.26,SSW,196,7.0,-999.0,58,-99.99,,,0.00,0,weatherlink.com 1.10,2014-01-29 04:22:00,
2014-01-28 23:37:00,3.5,-8.0,30.26,SW,234,5.0,-999.0,58,-99.99,,,0.00,0,weatherlink.com 1.10,2014-01-29 04:37:00,
2014-01-28 23:52:00,3.3,-9.0,30.25,SSW,207,6.0,-999.0,58,-99.99,,,0.00,0,weatherlink.com 1.10,2014-01-29 04:52:00,